sensor_id;sensor_type;location;lat;lon;timestamp;P1;durP1;ratioP1;P2;durP2;ratioP2
13331;SDS011;6735;51.456;12.626;2023-04-24T00:01:53;5.50;;;5.10;;
13331;SDS011;6735;51.456;12.626;2023-04-24T00:04:20;5.73;;;5.23;;
13331;SDS011;6735;51.456;12.626;2023-04-24T00:06:45;7.13;;;5.10;;
13331;SDS011;6735;51.456;12.626;2023-04-24T00:09:14;5.20;;;4.77;;
13331;SDS011;6735;51.456;12.626;2023-04-24T00:11:39;5.20;;;4.80;;
13331;SDS011;6735;51.456;12.626;2023-04-24T00:14:05;5.70;;;5.20;;
13331;SDS011;6735;51.456;12.626;2023-04-24T00:16:31;5.60;;;5.10;;
13331;SDS011;6735;51.456;12.626;2023-04-24T00:18:56;6.03;;;5.20;;
13331;SDS011;6735;51.456;12.626;2023-04-24T00:21:22;5.60;;;4.90;;
13331;SDS011;6735;51.456;12.626;2023-04-24T00:23:50;5.20;;;4.80;;
13331;SDS011;6735;51.456;12.626;2023-04-24T00:26:16;6.00;;;5.23;;
13331;SDS011;6735;51.456;12.626;2023-04-24T00:28:41;6.20;;;5.70;;
13331;SDS011;6735;51.456;12.626;2023-04-24T00:31:07;5.97;;;5.37;;
13331;SDS011;6735;51.456;12.626;2023-04-24T00:33:32;5.80;;;5.30;;
13331;SDS011;6735;51.456;12.626;2023-04-24T00:35:58;5.53;;;5.13;;
13331;SDS011;6735;51.456;12.626;2023-04-24T00:38:23;5.47;;;5.07;;
13331;SDS011;6735;51.456;12.626;2023-04-24T00:40:49;5.27;;;4.87;;
13331;SDS011;6735;51.456;12.626;2023-04-24T00:43:15;5.37;;;4.87;;
13331;SDS011;6735;51.456;12.626;2023-04-24T00:45:41;5.47;;;4.90;;
13331;SDS011;6735;51.456;12.626;2023-04-24T00:48:08;5.07;;;4.57;;
13331;SDS011;6735;51.456;12.626;2023-04-24T00:50:35;4.57;;;4.17;;
13331;SDS011;6735;51.456;12.626;2023-04-24T00:53:01;5.33;;;4.33;;
13331;SDS011;6735;51.456;12.626;2023-04-24T00:55:26;5.27;;;4.33;;
13331;SDS011;6735;51.456;12.626;2023-04-24T00:57:52;4.70;;;4.30;;
13331;SDS011;6735;51.456;12.626;2023-04-24T01:00:17;5.07;;;4.67;;
13331;SDS011;6735;51.456;12.626;2023-04-24T01:02:44;4.30;;;3.97;;
13331;SDS011;6735;51.456;12.626;2023-04-24T01:05:11;4.63;;;4.23;;
13331;SDS011;6735;51.456;12.626;2023-04-24T01:07:38;4.80;;;4.07;;
13331;SDS011;6735;51.456;12.626;2023-04-24T01:10:04;4.30;;;3.90;;
13331;SDS011;6735;51.456;12.626;2023-04-24T01:12:30;5.33;;;3.90;;
13331;SDS011;6735;51.456;12.626;2023-04-24T01:14:56;4.17;;;3.87;;
13331;SDS011;6735;51.456;12.626;2023-04-24T01:17:21;4.20;;;3.80;;
13331;SDS011;6735;51.456;12.626;2023-04-24T01:19:47;4.67;;;3.80;;
13331;SDS011;6735;51.456;12.626;2023-04-24T01:22:13;3.90;;;3.60;;
13331;SDS011;6735;51.456;12.626;2023-04-24T01:24:40;4.83;;;3.27;;
13331;SDS011;6735;51.456;12.626;2023-04-24T01:27:06;3.47;;;3.10;;
13331;SDS011;6735;51.456;12.626;2023-04-24T01:29:33;3.70;;;2.90;;
13331;SDS011;6735;51.456;12.626;2023-04-24T01:31:59;2.73;;;2.53;;
13331;SDS011;6735;51.456;12.626;2023-04-24T01:34:25;2.93;;;2.73;;
13331;SDS011;6735;51.456;12.626;2023-04-24T01:36:50;3.00;;;2.70;;
13331;SDS011;6735;51.456;12.626;2023-04-24T01:39:16;2.43;;;2.20;;
13331;SDS011;6735;51.456;12.626;2023-04-24T01:41:42;2.57;;;2.43;;
13331;SDS011;6735;51.456;12.626;2023-04-24T01:44:07;2.50;;;2.30;;
13331;SDS011;6735;51.456;12.626;2023-04-24T01:46:33;2.87;;;2.53;;
13331;SDS011;6735;51.456;12.626;2023-04-24T01:49:00;2.50;;;2.30;;
13331;SDS011;6735;51.456;12.626;2023-04-24T01:51:26;3.40;;;2.00;;
13331;SDS011;6735;51.456;12.626;2023-04-24T01:53:51;2.40;;;2.20;;
13331;SDS011;6735;51.456;12.626;2023-04-24T01:56:18;2.17;;;2.07;;
13331;SDS011;6735;51.456;12.626;2023-04-24T01:58:46;2.20;;;2.10;;
13331;SDS011;6735;51.456;12.626;2023-04-24T02:01:17;2.47;;;2.27;;
13331;SDS011;6735;51.456;12.626;2023-04-24T02:03:44;2.37;;;2.27;;
13331;SDS011;6735;51.456;12.626;2023-04-24T02:06:09;3.70;;;2.00;;
13331;SDS011;6735;51.456;12.626;2023-04-24T02:08:35;2.63;;;2.10;;
13331;SDS011;6735;51.456;12.626;2023-04-24T02:11:00;2.10;;;2.00;;
13331;SDS011;6735;51.456;12.626;2023-04-24T02:13:27;3.77;;;2.23;;
13331;SDS011;6735;51.456;12.626;2023-04-24T02:15:52;2.07;;;1.80;;
13331;SDS011;6735;51.456;12.626;2023-04-24T02:18:18;2.33;;;2.23;;
13331;SDS011;6735;51.456;12.626;2023-04-24T02:20:43;3.60;;;2.17;;
13331;SDS011;6735;51.456;12.626;2023-04-24T02:23:09;2.30;;;2.10;;
13331;SDS011;6735;51.456;12.626;2023-04-24T02:25:34;2.20;;;1.87;;
13331;SDS011;6735;51.456;12.626;2023-04-24T02:28:00;2.20;;;2.00;;
13331;SDS011;6735;51.456;12.626;2023-04-24T02:30:25;3.00;;;2.20;;
13331;SDS011;6735;51.456;12.626;2023-04-24T02:32:51;3.43;;;2.17;;
13331;SDS011;6735;51.456;12.626;2023-04-24T02:35:16;3.07;;;2.10;;
13331;SDS011;6735;51.456;12.626;2023-04-24T02:37:42;2.37;;;2.17;;
13331;SDS011;6735;51.456;12.626;2023-04-24T02:40:08;2.87;;;2.00;;
13331;SDS011;6735;51.456;12.626;2023-04-24T02:42:34;2.30;;;2.20;;
13331;SDS011;6735;51.456;12.626;2023-04-24T02:44:59;2.37;;;2.20;;
13331;SDS011;6735;51.456;12.626;2023-04-24T02:47:25;2.77;;;2.17;;
13331;SDS011;6735;51.456;12.626;2023-04-24T02:49:50;3.57;;;2.13;;
13331;SDS011;6735;51.456;12.626;2023-04-24T02:52:15;2.83;;;2.20;;
13331;SDS011;6735;51.456;12.626;2023-04-24T02:54:41;3.00;;;2.50;;
13331;SDS011;6735;51.456;12.626;2023-04-24T02:57:07;3.77;;;2.43;;
13331;SDS011;6735;51.456;12.626;2023-04-24T02:59:33;2.53;;;2.30;;
13331;SDS011;6735;51.456;12.626;2023-04-24T03:01:58;3.03;;;2.23;;
13331;SDS011;6735;51.456;12.626;2023-04-24T03:04:24;3.53;;;2.20;;
13331;SDS011;6735;51.456;12.626;2023-04-24T03:06:50;2.57;;;2.20;;
13331;SDS011;6735;51.456;12.626;2023-04-24T03:09:17;2.33;;;2.23;;
13331;SDS011;6735;51.456;12.626;2023-04-24T03:11:43;2.50;;;2.30;;
13331;SDS011;6735;51.456;12.626;2023-04-24T03:14:09;2.23;;;2.13;;
13331;SDS011;6735;51.456;12.626;2023-04-24T03:16:34;3.63;;;2.20;;
13331;SDS011;6735;51.456;12.626;2023-04-24T03:18:59;2.57;;;2.33;;
13331;SDS011;6735;51.456;12.626;2023-04-24T03:21:25;2.40;;;2.20;;
13331;SDS011;6735;51.456;12.626;2023-04-24T03:23:51;2.47;;;2.27;;
13331;SDS011;6735;51.456;12.626;2023-04-24T03:26:17;2.80;;;2.37;;
13331;SDS011;6735;51.456;12.626;2023-04-24T03:28:42;3.50;;;2.60;;
13331;SDS011;6735;51.456;12.626;2023-04-24T03:31:07;2.40;;;2.30;;
13331;SDS011;6735;51.456;12.626;2023-04-24T03:33:33;2.50;;;2.30;;
13331;SDS011;6735;51.456;12.626;2023-04-24T03:35:58;2.63;;;2.43;;
13331;SDS011;6735;51.456;12.626;2023-04-24T03:38:24;2.80;;;2.17;;
13331;SDS011;6735;51.456;12.626;2023-04-24T03:40:49;2.83;;;2.40;;
13331;SDS011;6735;51.456;12.626;2023-04-24T03:43:15;2.70;;;2.50;;
13331;SDS011;6735;51.456;12.626;2023-04-24T03:45:40;2.87;;;2.37;;
13331;SDS011;6735;51.456;12.626;2023-04-24T03:48:06;2.60;;;2.40;;
13331;SDS011;6735;51.456;12.626;2023-04-24T03:50:32;3.53;;;2.70;;
13331;SDS011;6735;51.456;12.626;2023-04-24T03:52:58;4.30;;;2.70;;
13331;SDS011;6735;51.456;12.626;2023-04-24T03:55:23;3.03;;;2.70;;
13331;SDS011;6735;51.456;12.626;2023-04-24T03:57:49;3.00;;;2.50;;
13331;SDS011;6735;51.456;12.626;2023-04-24T04:00:14;2.90;;;2.70;;
13331;SDS011;6735;51.456;12.626;2023-04-24T04:02:40;6.93;;;3.10;;
13331;SDS011;6735;51.456;12.626;2023-04-24T04:05:06;7.30;;;6.33;;
13331;SDS011;6735;51.456;12.626;2023-04-24T04:07:32;5.37;;;4.87;;
13331;SDS011;6735;51.456;12.626;2023-04-24T04:09:58;3.33;;;3.03;;
13331;SDS011;6735;51.456;12.626;2023-04-24T04:12:24;2.73;;;2.50;;
13331;SDS011;6735;51.456;12.626;2023-04-24T04:14:49;2.80;;;2.60;;
13331;SDS011;6735;51.456;12.626;2023-04-24T04:17:15;3.00;;;2.30;;
13331;SDS011;6735;51.456;12.626;2023-04-24T04:19:40;5.23;;;2.53;;
13331;SDS011;6735;51.456;12.626;2023-04-24T04:22:06;4.43;;;2.30;;
13331;SDS011;6735;51.456;12.626;2023-04-24T04:24:33;3.20;;;2.50;;
13331;SDS011;6735;51.456;12.626;2023-04-24T04:26:58;4.07;;;2.70;;
13331;SDS011;6735;51.456;12.626;2023-04-24T04:29:24;3.27;;;2.47;;
13331;SDS011;6735;51.456;12.626;2023-04-24T04:31:50;2.80;;;2.60;;
13331;SDS011;6735;51.456;12.626;2023-04-24T04:34:16;5.33;;;2.80;;
13331;SDS011;6735;51.456;12.626;2023-04-24T04:36:41;4.43;;;2.63;;
13331;SDS011;6735;51.456;12.626;2023-04-24T04:39:07;5.27;;;2.87;;
13331;SDS011;6735;51.456;12.626;2023-04-24T04:41:33;3.00;;;2.60;;
13331;SDS011;6735;51.456;12.626;2023-04-24T04:44:00;5.33;;;3.10;;
13331;SDS011;6735;51.456;12.626;2023-04-24T04:46:26;3.77;;;2.80;;
13331;SDS011;6735;51.456;12.626;2023-04-24T04:48:52;3.33;;;2.80;;
13331;SDS011;6735;51.456;12.626;2023-04-24T04:51:19;3.23;;;2.83;;
13331;SDS011;6735;51.456;12.626;2023-04-24T04:53:45;5.40;;;3.40;;
13331;SDS011;6735;51.456;12.626;2023-04-24T04:56:10;3.50;;;3.20;;
13331;SDS011;6735;51.456;12.626;2023-04-24T04:58:36;3.23;;;3.00;;
13331;SDS011;6735;51.456;12.626;2023-04-24T05:01:01;3.93;;;3.33;;
13331;SDS011;6735;51.456;12.626;2023-04-24T05:03:27;4.10;;;3.50;;
13331;SDS011;6735;51.456;12.626;2023-04-24T05:05:52;5.53;;;3.13;;
13331;SDS011;6735;51.456;12.626;2023-04-24T05:08:18;3.90;;;3.17;;
13331;SDS011;6735;51.456;12.626;2023-04-24T05:10:43;4.60;;;3.40;;
13331;SDS011;6735;51.456;12.626;2023-04-24T05:13:09;4.53;;;2.90;;
13331;SDS011;6735;51.456;12.626;2023-04-24T05:15:34;4.87;;;3.27;;
13331;SDS011;6735;51.456;12.626;2023-04-24T05:18:00;3.70;;;3.30;;
13331;SDS011;6735;51.456;12.626;2023-04-24T05:20:25;10.77;;;3.40;;
13331;SDS011;6735;51.456;12.626;2023-04-24T05:22:51;3.50;;;2.80;;
13331;SDS011;6735;51.456;12.626;2023-04-24T05:25:16;3.40;;;3.10;;
13331;SDS011;6735;51.456;12.626;2023-04-24T05:27:42;4.63;;;2.73;;
13331;SDS011;6735;51.456;12.626;2023-04-24T05:30:07;4.30;;;2.93;;
13331;SDS011;6735;51.456;12.626;2023-04-24T05:32:34;5.33;;;2.60;;
13331;SDS011;6735;51.456;12.626;2023-04-24T05:34:59;3.03;;;2.83;;
13331;SDS011;6735;51.456;12.626;2023-04-24T05:37:25;4.97;;;2.60;;
13331;SDS011;6735;51.456;12.626;2023-04-24T05:39:50;9.20;;;2.77;;
13331;SDS011;6735;51.456;12.626;2023-04-24T05:42:16;3.77;;;2.37;;
13331;SDS011;6735;51.456;12.626;2023-04-24T05:44:41;2.63;;;2.43;;
13331;SDS011;6735;51.456;12.626;2023-04-24T05:47:07;2.70;;;2.40;;
13331;SDS011;6735;51.456;12.626;2023-04-24T05:49:32;2.70;;;2.50;;
13331;SDS011;6735;51.456;12.626;2023-04-24T05:51:58;2.50;;;2.30;;
13331;SDS011;6735;51.456;12.626;2023-04-24T05:54:23;6.70;;;2.90;;
13331;SDS011;6735;51.456;12.626;2023-04-24T05:56:49;3.03;;;2.73;;
13331;SDS011;6735;51.456;12.626;2023-04-24T05:59:15;3.57;;;2.60;;
13331;SDS011;6735;51.456;12.626;2023-04-24T06:01:41;2.60;;;2.40;;
13331;SDS011;6735;51.456;12.626;2023-04-24T06:04:06;2.70;;;2.50;;
13331;SDS011;6735;51.456;12.626;2023-04-24T06:06:32;3.43;;;2.70;;
13331;SDS011;6735;51.456;12.626;2023-04-24T06:08:58;4.50;;;2.60;;
13331;SDS011;6735;51.456;12.626;2023-04-24T06:11:23;9.47;;;2.90;;
13331;SDS011;6735;51.456;12.626;2023-04-24T06:13:49;6.37;;;2.80;;
13331;SDS011;6735;51.456;12.626;2023-04-24T06:16:15;4.17;;;2.43;;
13331;SDS011;6735;51.456;12.626;2023-04-24T06:18:40;4.63;;;2.50;;
13331;SDS011;6735;51.456;12.626;2023-04-24T06:21:06;3.10;;;2.30;;
13331;SDS011;6735;51.456;12.626;2023-04-24T06:23:31;3.27;;;2.33;;
13331;SDS011;6735;51.456;12.626;2023-04-24T06:25:58;5.80;;;2.30;;
13331;SDS011;6735;51.456;12.626;2023-04-24T06:28:23;2.20;;;2.00;;
13331;SDS011;6735;51.456;12.626;2023-04-24T06:30:49;5.23;;;1.90;;
13331;SDS011;6735;51.456;12.626;2023-04-24T06:33:15;2.10;;;1.90;;
13331;SDS011;6735;51.456;12.626;2023-04-24T06:35:41;1.80;;;1.70;;
13331;SDS011;6735;51.456;12.626;2023-04-24T06:38:06;12.20;;;2.20;;
13331;SDS011;6735;51.456;12.626;2023-04-24T06:40:32;4.57;;;2.00;;
13331;SDS011;6735;51.456;12.626;2023-04-24T06:42:58;3.27;;;1.73;;
13331;SDS011;6735;51.456;12.626;2023-04-24T06:45:25;2.23;;;1.80;;
13331;SDS011;6735;51.456;12.626;2023-04-24T06:47:50;12.37;;;2.50;;
13331;SDS011;6735;51.456;12.626;2023-04-24T06:50:16;4.93;;;1.77;;
13331;SDS011;6735;51.456;12.626;2023-04-24T06:52:41;3.30;;;2.20;;
13331;SDS011;6735;51.456;12.626;2023-04-24T06:55:07;4.97;;;2.00;;
13331;SDS011;6735;51.456;12.626;2023-04-24T06:57:33;2.23;;;1.93;;
13331;SDS011;6735;51.456;12.626;2023-04-24T06:59:58;1.70;;;1.60;;
13331;SDS011;6735;51.456;12.626;2023-04-24T07:02:24;2.63;;;1.90;;
13331;SDS011;6735;51.456;12.626;2023-04-24T07:04:50;4.03;;;1.87;;
13331;SDS011;6735;51.456;12.626;2023-04-24T07:07:15;3.30;;;1.80;;
13331;SDS011;6735;51.456;12.626;2023-04-24T07:09:41;5.63;;;1.90;;
13331;SDS011;6735;51.456;12.626;2023-04-24T07:12:07;4.13;;;1.80;;
13331;SDS011;6735;51.456;12.626;2023-04-24T07:14:33;2.20;;;2.00;;
13331;SDS011;6735;51.456;12.626;2023-04-24T07:16:59;2.63;;;1.90;;
13331;SDS011;6735;51.456;12.626;2023-04-24T07:19:24;4.70;;;2.30;;
13331;SDS011;6735;51.456;12.626;2023-04-24T07:21:50;2.10;;;1.93;;
13331;SDS011;6735;51.456;12.626;2023-04-24T07:24:15;4.40;;;2.40;;
13331;SDS011;6735;51.456;12.626;2023-04-24T07:26:41;5.73;;;2.20;;
13331;SDS011;6735;51.456;12.626;2023-04-24T07:29:06;3.00;;;2.13;;
13331;SDS011;6735;51.456;12.626;2023-04-24T07:31:32;3.20;;;1.90;;
13331;SDS011;6735;51.456;12.626;2023-04-24T07:33:58;4.40;;;2.20;;
13331;SDS011;6735;51.456;12.626;2023-04-24T07:36:24;2.30;;;2.10;;
13331;SDS011;6735;51.456;12.626;2023-04-24T07:38:51;2.53;;;2.33;;
13331;SDS011;6735;51.456;12.626;2023-04-24T07:41:17;2.10;;;1.70;;
13331;SDS011;6735;51.456;12.626;2023-04-24T07:43:43;4.90;;;2.40;;
13331;SDS011;6735;51.456;12.626;2023-04-24T07:46:09;4.03;;;2.00;;
13331;SDS011;6735;51.456;12.626;2023-04-24T07:48:35;4.80;;;1.93;;
13331;SDS011;6735;51.456;12.626;2023-04-24T07:51:01;4.47;;;2.60;;
13331;SDS011;6735;51.456;12.626;2023-04-24T07:53:27;4.03;;;1.97;;
13331;SDS011;6735;51.456;12.626;2023-04-24T07:55:54;4.40;;;2.10;;
13331;SDS011;6735;51.456;12.626;2023-04-24T07:58:20;1.90;;;1.70;;
13331;SDS011;6735;51.456;12.626;2023-04-24T08:00:46;2.50;;;1.97;;
13331;SDS011;6735;51.456;12.626;2023-04-24T08:03:11;10.27;;;2.10;;
13331;SDS011;6735;51.456;12.626;2023-04-24T08:05:37;4.93;;;1.83;;
13331;SDS011;6735;51.456;12.626;2023-04-24T08:08:03;1.73;;;1.60;;
13331;SDS011;6735;51.456;12.626;2023-04-24T08:10:28;2.97;;;1.67;;
13331;SDS011;6735;51.456;12.626;2023-04-24T08:12:54;2.40;;;1.80;;
13331;SDS011;6735;51.456;12.626;2023-04-24T08:15:20;3.20;;;1.70;;
13331;SDS011;6735;51.456;12.626;2023-04-24T08:17:46;3.50;;;1.73;;
13331;SDS011;6735;51.456;12.626;2023-04-24T08:20:11;1.60;;;1.50;;
13331;SDS011;6735;51.456;12.626;2023-04-24T08:22:40;1.60;;;1.40;;
13331;SDS011;6735;51.456;12.626;2023-04-24T08:25:06;4.17;;;1.60;;
13331;SDS011;6735;51.456;12.626;2023-04-24T08:27:32;2.57;;;1.40;;
13331;SDS011;6735;51.456;12.626;2023-04-24T08:29:58;1.60;;;1.50;;
13331;SDS011;6735;51.456;12.626;2023-04-24T08:32:24;2.17;;;1.50;;
13331;SDS011;6735;51.456;12.626;2023-04-24T08:34:52;2.77;;;1.40;;
13331;SDS011;6735;51.456;12.626;2023-04-24T08:37:18;2.83;;;1.70;;
13331;SDS011;6735;51.456;12.626;2023-04-24T08:39:43;4.37;;;1.90;;
13331;SDS011;6735;51.456;12.626;2023-04-24T08:42:09;3.03;;;1.60;;
13331;SDS011;6735;51.456;12.626;2023-04-24T08:44:37;3.60;;;1.70;;
13331;SDS011;6735;51.456;12.626;2023-04-24T08:47:03;3.17;;;1.70;;
13331;SDS011;6735;51.456;12.626;2023-04-24T08:49:30;3.87;;;1.80;;
13331;SDS011;6735;51.456;12.626;2023-04-24T08:51:56;2.80;;;1.70;;
13331;SDS011;6735;51.456;12.626;2023-04-24T08:54:21;3.63;;;1.50;;
13331;SDS011;6735;51.456;12.626;2023-04-24T08:56:48;2.90;;;1.60;;
13331;SDS011;6735;51.456;12.626;2023-04-24T08:59:14;5.50;;;1.80;;
13331;SDS011;6735;51.456;12.626;2023-04-24T09:01:40;3.93;;;1.40;;
13331;SDS011;6735;51.456;12.626;2023-04-24T09:04:07;3.63;;;1.50;;
13331;SDS011;6735;51.456;12.626;2023-04-24T09:06:37;4.20;;;1.50;;
13331;SDS011;6735;51.456;12.626;2023-04-24T09:09:03;2.63;;;1.50;;
13331;SDS011;6735;51.456;12.626;2023-04-24T09:11:32;3.57;;;1.60;;
13331;SDS011;6735;51.456;12.626;2023-04-24T09:13:58;4.10;;;1.40;;
13331;SDS011;6735;51.456;12.626;2023-04-24T09:16:25;1.60;;;1.13;;
13331;SDS011;6735;51.456;12.626;2023-04-24T09:18:51;2.90;;;1.50;;
13331;SDS011;6735;51.456;12.626;2023-04-24T09:21:17;2.10;;;1.20;;
13331;SDS011;6735;51.456;12.626;2023-04-24T09:23:45;1.00;;;1.00;;
13331;SDS011;6735;51.456;12.626;2023-04-24T09:26:10;2.87;;;1.50;;
13331;SDS011;6735;51.456;12.626;2023-04-24T09:28:39;2.87;;;1.10;;
13331;SDS011;6735;51.456;12.626;2023-04-24T09:31:06;1.80;;;1.00;;
13331;SDS011;6735;51.456;12.626;2023-04-24T09:33:34;1.20;;;1.10;;
13331;SDS011;6735;51.456;12.626;2023-04-24T09:36:00;1.43;;;1.10;;
13331;SDS011;6735;51.456;12.626;2023-04-24T09:38:36;3.67;;;1.40;;
13331;SDS011;6735;51.456;12.626;2023-04-24T09:41:03;0.90;;;0.90;;
13331;SDS011;6735;51.456;12.626;2023-04-24T09:43:30;1.47;;;0.80;;
13331;SDS011;6735;51.456;12.626;2023-04-24T09:45:57;3.83;;;2.53;;
13331;SDS011;6735;51.456;12.626;2023-04-24T09:48:30;3.30;;;2.70;;
13331;SDS011;6735;51.456;12.626;2023-04-24T09:51:00;2.80;;;2.57;;
13331;SDS011;6735;51.456;12.626;2023-04-24T09:53:26;5.27;;;1.90;;
13331;SDS011;6735;51.456;12.626;2023-04-24T09:55:52;2.70;;;1.63;;
13331;SDS011;6735;51.456;12.626;2023-04-24T09:58:18;2.27;;;1.20;;
13331;SDS011;6735;51.456;12.626;2023-04-24T10:00:54;1.70;;;1.60;;
13331;SDS011;6735;51.456;12.626;2023-04-24T10:03:20;2.17;;;1.50;;
13331;SDS011;6735;51.456;12.626;2023-04-24T10:05:49;1.60;;;1.50;;
13331;SDS011;6735;51.456;12.626;2023-04-24T10:08:16;1.63;;;1.23;;
13331;SDS011;6735;51.456;12.626;2023-04-24T10:10:43;1.83;;;1.50;;
13331;SDS011;6735;51.456;12.626;2023-04-24T10:13:10;1.60;;;1.50;;
13331;SDS011;6735;51.456;12.626;2023-04-24T10:15:37;1.70;;;1.10;;
13331;SDS011;6735;51.456;12.626;2023-04-24T10:18:04;2.83;;;1.20;;
13331;SDS011;6735;51.456;12.626;2023-04-24T10:20:31;2.93;;;1.30;;
13331;SDS011;6735;51.456;12.626;2023-04-24T10:22:58;3.73;;;1.30;;
13331;SDS011;6735;51.456;12.626;2023-04-24T10:25:28;4.50;;;1.63;;
13331;SDS011;6735;51.456;12.626;2023-04-24T10:27:55;1.50;;;1.40;;
13331;SDS011;6735;51.456;12.626;2023-04-24T10:30:24;2.70;;;1.40;;
13331;SDS011;6735;51.456;12.626;2023-04-24T10:32:50;1.07;;;1.07;;
13331;SDS011;6735;51.456;12.626;2023-04-24T10:35:16;2.00;;;1.13;;
13331;SDS011;6735;51.456;12.626;2023-04-24T10:37:48;1.30;;;1.20;;
13331;SDS011;6735;51.456;12.626;2023-04-24T10:40:17;1.30;;;1.20;;
13331;SDS011;6735;51.456;12.626;2023-04-24T10:42:46;3.27;;;1.40;;
13331;SDS011;6735;51.456;12.626;2023-04-24T10:45:23;2.37;;;1.50;;
13331;SDS011;6735;51.456;12.626;2023-04-24T10:47:53;3.27;;;1.37;;
13331;SDS011;6735;51.456;12.626;2023-04-24T10:50:43;2.73;;;1.30;;
13331;SDS011;6735;51.456;12.626;2023-04-24T10:53:17;2.87;;;1.43;;
13331;SDS011;6735;51.456;12.626;2023-04-24T10:55:46;3.30;;;1.30;;
13331;SDS011;6735;51.456;12.626;2023-04-24T10:58:13;1.30;;;1.20;;
13331;SDS011;6735;51.456;12.626;2023-04-24T11:00:41;3.23;;;1.50;;
13331;SDS011;6735;51.456;12.626;2023-04-24T11:03:28;4.13;;;1.40;;
13331;SDS011;6735;51.456;12.626;2023-04-24T11:06:02;2.13;;;1.50;;
13331;SDS011;6735;51.456;12.626;2023-04-24T11:08:38;3.20;;;1.40;;
13331;SDS011;6735;51.456;12.626;2023-04-24T11:16:20;1.90;;;1.10;;
13331;SDS011;6735;51.456;12.626;2023-04-24T11:21:31;2.50;;;1.40;;
13331;SDS011;6735;51.456;12.626;2023-04-24T11:24:21;3.07;;;1.40;;
13331;SDS011;6735;51.456;12.626;2023-04-24T11:26:47;4.27;;;1.70;;
13331;SDS011;6735;51.456;12.626;2023-04-24T11:29:13;2.47;;;1.33;;
13331;SDS011;6735;51.456;12.626;2023-04-24T11:31:43;2.73;;;1.30;;
13331;SDS011;6735;51.456;12.626;2023-04-24T11:34:14;4.93;;;1.30;;
13331;SDS011;6735;51.456;12.626;2023-04-24T11:36:47;5.73;;;1.33;;
13331;SDS011;6735;51.456;12.626;2023-04-24T11:39:13;5.23;;;1.67;;
13331;SDS011;6735;51.456;12.626;2023-04-24T11:41:39;1.33;;;1.20;;
13331;SDS011;6735;51.456;12.626;2023-04-24T11:44:06;2.73;;;1.23;;
13331;SDS011;6735;51.456;12.626;2023-04-24T11:46:32;4.57;;;1.53;;
13331;SDS011;6735;51.456;12.626;2023-04-24T11:48:58;5.97;;;1.70;;
13331;SDS011;6735;51.456;12.626;2023-04-24T11:51:25;3.90;;;1.40;;
13331;SDS011;6735;51.456;12.626;2023-04-24T11:53:55;4.03;;;1.30;;
13331;SDS011;6735;51.456;12.626;2023-04-24T11:56:21;2.33;;;1.23;;
13331;SDS011;6735;51.456;12.626;2023-04-24T11:58:48;3.30;;;1.10;;
13331;SDS011;6735;51.456;12.626;2023-04-24T12:01:16;2.13;;;1.20;;
13331;SDS011;6735;51.456;12.626;2023-04-24T12:03:42;2.00;;;1.10;;
13331;SDS011;6735;51.456;12.626;2023-04-24T12:06:12;1.77;;;1.50;;
13331;SDS011;6735;51.456;12.626;2023-04-24T12:08:38;2.77;;;1.60;;
13331;SDS011;6735;51.456;12.626;2023-04-24T12:11:05;2.77;;;1.20;;
13331;SDS011;6735;51.456;12.626;2023-04-24T12:13:34;1.33;;;1.20;;
13331;SDS011;6735;51.456;12.626;2023-04-24T12:16:03;5.07;;;1.50;;
13331;SDS011;6735;51.456;12.626;2023-04-24T12:18:29;3.63;;;1.40;;
13331;SDS011;6735;51.456;12.626;2023-04-24T12:20:55;3.90;;;1.50;;
13331;SDS011;6735;51.456;12.626;2023-04-24T12:23:42;2.10;;;1.30;;
13331;SDS011;6735;51.456;12.626;2023-04-24T12:26:08;2.73;;;1.33;;
13331;SDS011;6735;51.456;12.626;2023-04-24T12:28:34;2.13;;;1.00;;
13331;SDS011;6735;51.456;12.626;2023-04-24T12:31:01;1.67;;;1.30;;
13331;SDS011;6735;51.456;12.626;2023-04-24T12:33:27;1.90;;;1.30;;
13331;SDS011;6735;51.456;12.626;2023-04-24T12:35:57;2.73;;;1.57;;
13331;SDS011;6735;51.456;12.626;2023-04-24T12:38:23;4.13;;;1.50;;
13331;SDS011;6735;51.456;12.626;2023-04-24T12:41:01;3.00;;;1.37;;
13331;SDS011;6735;51.456;12.626;2023-04-24T12:43:30;2.67;;;1.43;;
13331;SDS011;6735;51.456;12.626;2023-04-24T12:45:55;1.63;;;1.40;;
13331;SDS011;6735;51.456;12.626;2023-04-24T12:48:21;2.67;;;1.53;;
13331;SDS011;6735;51.456;12.626;2023-04-24T12:50:48;2.53;;;1.60;;
13331;SDS011;6735;51.456;12.626;2023-04-24T12:53:14;1.90;;;1.30;;
13331;SDS011;6735;51.456;12.626;2023-04-24T12:55:40;1.40;;;1.30;;
13331;SDS011;6735;51.456;12.626;2023-04-24T12:58:05;3.10;;;1.43;;
13331;SDS011;6735;51.456;12.626;2023-04-24T13:00:31;2.70;;;1.70;;
13331;SDS011;6735;51.456;12.626;2023-04-24T13:02:56;1.60;;;1.50;;
13331;SDS011;6735;51.456;12.626;2023-04-24T13:05:22;1.57;;;1.47;;
13331;SDS011;6735;51.456;12.626;2023-04-24T13:07:47;2.30;;;1.90;;
13331;SDS011;6735;51.456;12.626;2023-04-24T13:10:13;1.70;;;1.60;;
13331;SDS011;6735;51.456;12.626;2023-04-24T13:12:38;2.23;;;2.00;;
13331;SDS011;6735;51.456;12.626;2023-04-24T13:15:05;3.73;;;1.80;;
13331;SDS011;6735;51.456;12.626;2023-04-24T13:17:31;2.20;;;1.80;;
13331;SDS011;6735;51.456;12.626;2023-04-24T13:19:57;3.43;;;1.53;;
13331;SDS011;6735;51.456;12.626;2023-04-24T13:22:22;2.30;;;1.40;;
13331;SDS011;6735;51.456;12.626;2023-04-24T13:24:48;2.30;;;1.70;;
13331;SDS011;6735;51.456;12.626;2023-04-24T13:27:14;1.80;;;1.70;;
13331;SDS011;6735;51.456;12.626;2023-04-24T13:29:40;2.23;;;1.60;;
13331;SDS011;6735;51.456;12.626;2023-04-24T13:32:06;1.67;;;1.57;;
13331;SDS011;6735;51.456;12.626;2023-04-24T13:34:32;1.70;;;1.60;;
13331;SDS011;6735;51.456;12.626;2023-04-24T13:36:59;1.97;;;1.50;;
13331;SDS011;6735;51.456;12.626;2023-04-24T13:39:25;3.73;;;1.87;;
13331;SDS011;6735;51.456;12.626;2023-04-24T13:41:51;11.33;;;2.33;;
13331;SDS011;6735;51.456;12.626;2023-04-24T13:44:17;1.83;;;1.50;;
13331;SDS011;6735;51.456;12.626;2023-04-24T13:46:44;2.70;;;1.60;;
13331;SDS011;6735;51.456;12.626;2023-04-24T13:49:12;5.20;;;1.93;;
13331;SDS011;6735;51.456;12.626;2023-04-24T13:51:38;2.50;;;1.47;;
13331;SDS011;6735;51.456;12.626;2023-04-24T13:54:04;3.93;;;1.90;;
13331;SDS011;6735;51.456;12.626;2023-04-24T13:56:30;3.50;;;1.80;;
13331;SDS011;6735;51.456;12.626;2023-04-24T13:58:55;4.73;;;1.70;;
13331;SDS011;6735;51.456;12.626;2023-04-24T14:01:21;3.60;;;1.97;;
13331;SDS011;6735;51.456;12.626;2023-04-24T14:03:50;5.43;;;2.30;;
13331;SDS011;6735;51.456;12.626;2023-04-24T14:06:17;2.13;;;1.87;;
13331;SDS011;6735;51.456;12.626;2023-04-24T14:08:43;3.37;;;1.77;;
13331;SDS011;6735;51.456;12.626;2023-04-24T14:11:08;10.70;;;2.43;;
13331;SDS011;6735;51.456;12.626;2023-04-24T14:13:35;1.47;;;1.37;;
13331;SDS011;6735;51.456;12.626;2023-04-24T14:16:01;1.57;;;1.47;;
13331;SDS011;6735;51.456;12.626;2023-04-24T14:18:27;3.50;;;1.10;;
13331;SDS011;6735;51.456;12.626;2023-04-24T14:20:52;2.33;;;1.50;;
13331;SDS011;6735;51.456;12.626;2023-04-24T14:23:18;2.70;;;1.67;;
13331;SDS011;6735;51.456;12.626;2023-04-24T14:25:43;1.80;;;1.60;;
13331;SDS011;6735;51.456;12.626;2023-04-24T14:28:09;1.43;;;1.33;;
13331;SDS011;6735;51.456;12.626;2023-04-24T14:30:34;1.50;;;1.40;;
13331;SDS011;6735;51.456;12.626;2023-04-24T14:33:02;2.80;;;1.30;;
13331;SDS011;6735;51.456;12.626;2023-04-24T14:35:28;1.97;;;1.53;;
13331;SDS011;6735;51.456;12.626;2023-04-24T14:37:56;6.17;;;1.40;;
13331;SDS011;6735;51.456;12.626;2023-04-24T14:40:21;1.93;;;0.97;;
13331;SDS011;6735;51.456;12.626;2023-04-24T14:42:47;1.20;;;1.07;;
13331;SDS011;6735;51.456;12.626;2023-04-24T14:45:12;1.90;;;1.40;;
13331;SDS011;6735;51.456;12.626;2023-04-24T14:47:38;2.00;;;1.27;;
13331;SDS011;6735;51.456;12.626;2023-04-24T14:50:04;5.07;;;1.60;;
13331;SDS011;6735;51.456;12.626;2023-04-24T14:52:30;1.80;;;1.50;;